createdAt,value
2019-01-25T00:00:31.683Z,930.66
2019-01-25T00:01:31.925Z,930.67
2019-01-25T00:02:32.328Z,930.64
2019-01-25T00:03:32.814Z,930.67
2019-01-25T00:04:33.219Z,930.7
2019-01-25T00:05:34.189Z,930.67
2019-01-25T00:06:34.869Z,930.64
2019-01-25T00:07:35.105Z,930.68
2019-01-25T00:08:36.199Z,930.68
2019-01-25T00:09:36.604Z,930.65
2019-01-25T00:10:37.007Z,930.65
2019-01-25T00:11:37.409Z,930.62
2019-01-25T00:12:38.090Z,930.63
2019-01-25T00:13:38.491Z,930.61
2019-01-25T00:14:39.902Z,930.65
2019-01-25T00:15:40.298Z,930.65
2019-01-25T00:16:41.428Z,930.67
2019-01-25T00:17:42.110Z,930.64
2019-01-25T00:18:42.928Z,930.66
2019-01-25T00:19:43.609Z,930.67
2019-01-25T00:20:44.849Z,930.67
2019-01-25T00:21:45.260Z,930.68
2019-01-25T00:22:46.218Z,930.64
2019-01-25T00:23:47.239Z,930.66
2019-01-25T00:24:48.145Z,930.67
2019-01-25T00:25:49.272Z,930.63
2019-01-25T00:26:49.955Z,930.65
2019-01-25T00:27:50.912Z,930.63
2019-01-25T00:28:51.599Z,930.67
2019-01-25T00:29:52.740Z,930.65
2019-01-25T00:30:53.439Z,930.68
2019-01-25T00:31:54.838Z,930.7
2019-01-25T00:32:55.517Z,930.71
2019-01-25T00:33:55.933Z,930.69
2019-01-25T00:34:56.340Z,930.69
2019-01-25T00:35:57.017Z,930.67
2019-01-25T00:36:57.740Z,930.68
2019-01-25T00:37:58.141Z,930.67
2019-01-25T00:38:58.976Z,930.69
2019-01-25T00:40:06.620Z,930.65
2019-01-25T00:40:11.395Z,930.66
2019-01-25T00:41:11.926Z,930.66
2019-01-25T00:42:12.326Z,930.68
2019-01-25T00:43:13.454Z,930.7
2019-01-25T00:44:14.579Z,930.71
2019-01-25T00:45:14.983Z,930.7
2019-01-25T00:46:15.684Z,930.67
2019-01-25T00:47:15.963Z,930.67
2019-01-25T00:48:17.106Z,930.68
2019-01-25T00:49:17.788Z,930.66
2019-01-25T00:50:18.941Z,930.62
2019-01-25T00:51:19.753Z,930.69
2019-01-25T00:52:20.723Z,930.65
2019-01-25T00:53:21.410Z,930.72
2019-01-25T00:54:21.813Z,930.73
2019-01-25T00:55:22.215Z,930.71
2019-01-25T00:56:23.221Z,930.77
2019-01-25T00:57:23.620Z,930.75
2019-01-25T00:58:24.335Z,930.81
2019-01-25T00:59:24.738Z,930.77
2019-01-25T01:00:25.420Z,930.82
2019-01-25T01:01:27.629Z,930.77
2019-01-25T01:02:28.052Z,930.76
2019-01-25T01:03:28.462Z,930.75
2019-01-25T01:04:29.158Z,930.76
2019-01-25T01:05:30.117Z,930.77
2019-01-25T01:06:30.519Z,930.8
2019-01-25T01:07:31.475Z,930.8
2019-01-25T01:08:31.894Z,930.82
2019-01-25T01:09:32.574Z,930.81
2019-01-25T01:10:32.977Z,930.8
2019-01-25T01:11:33.370Z,930.83
2019-01-25T01:12:34.055Z,930.85
2019-01-25T01:13:34.456Z,930.88
2019-01-25T01:14:35.415Z,930.86
2019-01-25T01:15:35.868Z,930.81
2019-01-25T01:16:36.579Z,930.84
2019-01-25T01:17:36.980Z,930.83
2019-01-25T01:18:37.394Z,930.87
2019-01-25T01:19:38.071Z,930.86
2019-01-25T01:20:39.196Z,930.84
2019-01-25T01:21:40.285Z,930.83
2019-01-25T01:22:41.413Z,930.88
2019-01-25T01:23:42.651Z,930.89
2019-01-25T01:24:43.332Z,930.9
2019-01-25T01:25:44.020Z,930.93
2019-01-25T01:26:44.432Z,930.91
2019-01-25T01:27:45.563Z,930.91
2019-01-25T01:28:46.526Z,930.94
2019-01-25T01:29:47.283Z,930.95
2019-01-25T01:30:48.257Z,931
2019-01-25T01:31:49.360Z,930.95
2019-01-25T01:32:49.802Z,930.98
2019-01-25T01:33:50.761Z,930.92
2019-01-25T01:34:51.719Z,930.95
2019-01-25T01:35:51.894Z,930.95
2019-01-25T01:36:52.575Z,931
2019-01-25T01:37:53.536Z,931.01
2019-01-25T01:38:54.665Z,931
2019-01-25T01:39:55.791Z,931.02
2019-01-25T01:40:56.921Z,930.99
2019-01-25T01:41:57.295Z,931.02
2019-01-25T01:42:58.427Z,931
2019-01-25T01:43:58.853Z,931.03
2019-01-25T01:44:59.814Z,931.03
2019-01-25T01:46:00.788Z,931.01
2019-01-25T01:47:01.472Z,931.01
2019-01-25T01:48:01.789Z,931.03
2019-01-25T01:49:02.192Z,931.02
2019-01-25T01:50:03.602Z,931.01
2019-01-25T01:51:04.006Z,931.02
2019-01-25T01:52:04.372Z,931.01
2019-01-25T01:53:05.335Z,931.01
2019-01-25T01:54:06.017Z,930.98
2019-01-25T01:55:06.261Z,931.05
2019-01-25T01:56:06.499Z,931.01
2019-01-25T01:57:06.906Z,931
2019-01-25T01:58:07.306Z,931.03
2019-01-25T01:59:07.994Z,931
2019-01-25T02:00:08.685Z,931.04
2019-01-25T02:01:09.830Z,931.06
2019-01-25T02:02:10.195Z,931.07
2019-01-25T02:03:10.878Z,931.03
2019-01-25T02:04:11.282Z,931.04
2019-01-25T02:05:12.522Z,931.01
2019-01-25T02:06:12.925Z,931.08
2019-01-25T02:07:13.619Z,931.15
2019-01-25T02:08:14.746Z,931.12
2019-01-25T02:09:15.156Z,931.12
2019-01-25T02:10:16.117Z,931.14
2019-01-25T02:11:16.821Z,931.17
2019-01-25T02:12:17.191Z,931.19
2019-01-25T02:13:18.433Z,931.15
2019-01-25T02:14:18.670Z,931.21
2019-01-25T02:15:19.074Z,931.22
2019-01-25T02:16:19.759Z,931.2
2019-01-25T02:17:21.163Z,931.23
2019-01-25T02:18:21.570Z,931.24
2019-01-25T02:19:22.534Z,931.25
2019-01-25T02:20:23.224Z,931.24
2019-01-25T02:21:23.940Z,931.23
2019-01-25T02:22:24.471Z,931.25
2019-01-25T02:23:25.597Z,931.26
2019-01-25T02:24:26.287Z,931.28
2019-01-25T02:25:26.699Z,931.24
2019-01-25T02:26:27.383Z,931.26
2019-01-25T02:27:27.790Z,931.28
2019-01-25T02:28:28.198Z,931.31
2019-01-25T02:29:28.876Z,931.23
2019-01-25T02:30:29.583Z,931.29
2019-01-25T02:31:30.543Z,931.29
2019-01-25T02:32:31.214Z,931.27
2019-01-25T02:33:31.621Z,931.32
2019-01-25T02:34:31.867Z,931.34
2019-01-25T02:35:32.386Z,931.34
2019-01-25T02:36:33.067Z,931.34
2019-01-25T02:37:34.118Z,931.31
2019-01-25T02:38:34.516Z,931.3
2019-01-25T02:39:35.198Z,931.31
2019-01-25T02:40:39.924Z,931.33
2019-01-25T02:41:40.326Z,931.31
2019-01-25T02:42:41.714Z,931.32
2019-01-25T02:43:42.407Z,931.35
2019-01-25T02:44:43.378Z,931.35
2019-01-25T02:45:44.059Z,931.37
2019-01-25T02:46:44.480Z,931.34
2019-01-25T02:47:44.720Z,931.35
2019-01-25T02:48:45.684Z,931.36
2019-01-25T02:49:46.646Z,931.32
2019-01-25T02:50:47.606Z,931.35
2019-01-25T02:51:48.132Z,931.36
2019-01-25T02:52:48.778Z,931.4
2019-01-25T02:53:49.038Z,931.37
2019-01-25T02:54:50.003Z,931.44
2019-01-25T02:55:50.974Z,931.43
2019-01-25T02:56:51.214Z,931.4
2019-01-25T02:57:51.896Z,931.41
2019-01-25T02:58:52.873Z,931.38
2019-01-25T02:59:53.114Z,931.41
2019-01-25T03:00:53.794Z,931.41
2019-01-25T03:01:54.479Z,931.46
2019-01-25T03:02:55.446Z,931.44
2019-01-25T03:03:55.911Z,931.43
2019-01-25T03:04:56.629Z,931.45
2019-01-25T03:05:57.874Z,931.45
2019-01-25T03:06:58.396Z,931.43
2019-01-25T03:07:59.355Z,931.46
2019-01-25T03:09:00.324Z,931.4
2019-01-25T03:10:01.297Z,931.46
2019-01-25T03:11:01.536Z,931.48
2019-01-25T03:12:01.780Z,931.44
2019-01-25T03:13:02.872Z,931.47
2019-01-25T03:14:03.668Z,931.48
2019-01-25T03:15:04.635Z,931.49
2019-01-25T03:16:05.043Z,931.48
2019-01-25T03:17:05.723Z,931.48
2019-01-25T03:18:06.692Z,931.48
2019-01-25T03:19:07.377Z,931.47
2019-01-25T03:20:07.833Z,931.52
2019-01-25T03:21:08.118Z,931.47
2019-01-25T03:22:09.253Z,931.54
2019-01-25T03:23:10.091Z,931.56
2019-01-25T03:24:10.329Z,931.57
2019-01-25T03:25:11.033Z,931.53
2019-01-25T03:26:12.271Z,931.57
2019-01-25T03:27:12.671Z,931.54
2019-01-25T03:28:13.641Z,931.56
2019-01-25T03:29:14.773Z,931.59
2019-01-25T03:30:15.210Z,931.58
2019-01-25T03:31:16.505Z,931.59
2019-01-25T03:32:17.928Z,931.6
2019-01-25T03:33:18.289Z,931.63
2019-01-25T03:34:19.453Z,931.63
2019-01-25T03:35:20.138Z,931.6
2019-01-25T03:36:20.388Z,931.62
2019-01-25T03:37:21.350Z,931.64
2019-01-25T03:38:22.600Z,931.62
2019-01-25T03:39:23.564Z,931.62
2019-01-25T03:40:24.249Z,931.69
2019-01-25T03:41:24.936Z,931.67
2019-01-25T03:42:25.350Z,931.68
2019-01-25T03:43:26.301Z,931.66
2019-01-25T03:44:26.987Z,931.67
2019-01-25T03:45:27.957Z,931.69
2019-01-25T03:46:28.635Z,931.68
2019-01-25T03:47:29.762Z,931.66
2019-01-25T03:48:30.727Z,931.71
2019-01-25T03:49:31.409Z,931.74
2019-01-25T03:50:31.645Z,931.7
2019-01-25T03:51:32.339Z,931.75
2019-01-25T03:52:32.760Z,931.75
2019-01-25T03:53:33.257Z,931.76
2019-01-25T03:54:33.938Z,931.74
2019-01-25T03:55:35.068Z,931.77
2019-01-25T03:56:35.749Z,931.83
2019-01-25T03:57:36.434Z,931.85
2019-01-25T03:58:36.840Z,931.85
2019-01-25T03:59:37.528Z,931.84
2019-01-25T04:00:38.946Z,931.85
2019-01-25T04:01:39.465Z,931.85
2019-01-25T04:02:40.155Z,931.82
2019-01-25T04:03:40.806Z,931.83
2019-01-25T04:04:41.490Z,931.82
2019-01-25T04:05:41.898Z,931.8
2019-01-25T04:06:43.027Z,931.83
2019-01-25T04:07:44.343Z,931.86
2019-01-25T04:08:45.623Z,931.86
2019-01-25T04:09:46.306Z,931.85
2019-01-25T04:10:46.711Z,931.83
2019-01-25T04:11:47.742Z,931.9
2019-01-25T04:12:48.439Z,931.83
2019-01-25T04:13:49.555Z,931.86
2019-01-25T04:14:50.238Z,931.79
2019-01-25T04:15:50.641Z,931.81
2019-01-25T04:16:51.607Z,931.82
2019-01-25T04:17:52.575Z,931.82
2019-01-25T04:18:53.095Z,931.83
2019-01-25T04:19:53.789Z,931.85
2019-01-25T04:20:54.484Z,931.84
2019-01-25T04:21:55.445Z,931.81
2019-01-25T04:22:56.125Z,931.84
2019-01-25T04:23:56.935Z,931.89
2019-01-25T04:24:57.895Z,931.88
2019-01-25T04:25:58.371Z,931.88
2019-01-25T04:26:59.056Z,931.93
2019-01-25T04:27:59.740Z,931.86
2019-01-25T04:28:59.997Z,931.86
2019-01-25T04:30:00.958Z,931.84
2019-01-25T04:31:01.237Z,931.86
2019-01-25T04:32:01.765Z,931.86
2019-01-25T04:33:03.202Z,931.9
2019-01-25T04:34:03.594Z,931.91
2019-01-25T04:35:05.009Z,931.86
2019-01-25T04:36:05.976Z,931.89
2019-01-25T04:37:06.398Z,931.95
2019-01-25T04:38:07.081Z,931.9
2019-01-25T04:39:07.492Z,931.92
2019-01-25T04:40:08.194Z,931.93
2019-01-25T04:41:12.529Z,931.9
2019-01-25T04:42:12.934Z,931.91
2019-01-25T04:43:13.619Z,931.93
2019-01-25T04:44:14.712Z,931.95
2019-01-25T04:45:15.156Z,931.93
2019-01-25T04:46:16.227Z,931.94
2019-01-25T04:47:16.914Z,931.94
2019-01-25T04:48:17.875Z,931.95
2019-01-25T04:49:18.279Z,931.92
2019-01-25T04:50:19.991Z,931.89
2019-01-25T04:51:20.290Z,931.84
2019-01-25T04:52:21.441Z,931.86
2019-01-25T04:53:22.680Z,931.88
2019-01-25T04:54:23.054Z,931.89
2019-01-25T04:55:23.764Z,931.88
2019-01-25T04:56:24.340Z,931.87
2019-01-25T04:57:24.597Z,931.86
2019-01-25T04:58:24.852Z,931.87
2019-01-25T04:59:25.537Z,931.84
2019-01-25T05:00:26.034Z,931.84
2019-01-25T05:01:26.573Z,931.91
2019-01-25T05:02:27.979Z,931.86
2019-01-25T05:03:29.081Z,931.92
2019-01-25T05:04:29.919Z,931.9
2019-01-25T05:05:30.610Z,931.89
2019-01-25T05:06:31.572Z,931.85
2019-01-25T05:07:32.295Z,931.86
2019-01-25T05:08:32.537Z,931.87
2019-01-25T05:09:33.502Z,931.85
2019-01-25T05:10:33.909Z,931.87
2019-01-25T05:11:34.433Z,931.88
2019-01-25T05:12:35.115Z,931.84
2019-01-25T05:13:35.800Z,931.88
2019-01-25T05:14:36.755Z,931.76
2019-01-25T05:15:36.997Z,931.79
2019-01-25T05:16:37.762Z,931.82
2019-01-25T05:17:38.886Z,931.84
2019-01-25T05:18:40.023Z,931.81
2019-01-25T05:19:40.468Z,931.83
2019-01-25T05:20:41.425Z,931.87
2019-01-25T05:21:42.410Z,931.87
2019-01-25T05:22:43.094Z,931.87
2019-01-25T05:23:43.777Z,931.86
2019-01-25T05:24:44.589Z,931.89
2019-01-25T05:25:45.324Z,931.87
2019-01-25T05:26:46.309Z,931.87
2019-01-25T05:27:47.275Z,931.87
2019-01-25T05:28:48.011Z,931.86
2019-01-25T05:29:48.736Z,931.91
2019-01-25T05:30:49.718Z,931.91
2019-01-25T05:31:50.400Z,931.9
2019-01-25T05:32:51.526Z,931.85
2019-01-25T05:33:51.768Z,931.9
2019-01-25T05:34:52.301Z,931.9
2019-01-25T05:35:53.542Z,931.95
2019-01-25T05:36:54.670Z,931.9
2019-01-25T05:37:55.076Z,931.94
2019-01-25T05:38:56.036Z,931.95
2019-01-25T05:39:57.285Z,931.99
2019-01-25T05:40:58.524Z,932.05
2019-01-25T05:41:59.499Z,931.99
2019-01-25T05:43:00.476Z,932
2019-01-25T05:44:01.459Z,932.05
2019-01-25T05:45:02.110Z,932.03
2019-01-25T05:46:02.803Z,932
2019-01-25T05:47:03.210Z,932.04
2019-01-25T05:48:03.892Z,932.1
2019-01-25T05:49:04.864Z,932.1
2019-01-25T05:50:05.548Z,932.09
2019-01-25T05:51:06.233Z,932.11
2019-01-25T05:52:07.204Z,932.14
2019-01-25T05:53:07.617Z,932.1
2019-01-25T05:54:08.863Z,932.11
2019-01-25T05:55:10.230Z,932.13
2019-01-25T05:56:11.186Z,932.13
2019-01-25T05:57:11.890Z,932.18
2019-01-25T05:58:12.294Z,932.17
2019-01-25T05:59:12.697Z,932.18
2019-01-25T06:00:13.102Z,932.17
2019-01-25T06:01:13.785Z,932.18
2019-01-25T06:02:14.464Z,932.19
2019-01-25T06:03:15.156Z,932.17
2019-01-25T06:04:16.124Z,932.16
2019-01-25T06:05:16.945Z,932.22
2019-01-25T06:06:17.914Z,932.2
2019-01-25T06:07:18.597Z,932.26
2019-01-25T06:08:19.562Z,932.3
2019-01-25T06:09:19.973Z,932.28
2019-01-25T06:10:20.387Z,932.26
2019-01-25T06:11:21.347Z,932.28
2019-01-25T06:12:22.308Z,932.31
2019-01-25T06:13:22.746Z,932.29
2019-01-25T06:14:23.879Z,932.32
2019-01-25T06:15:24.535Z,932.32
2019-01-25T06:16:25.266Z,932.3
2019-01-25T06:17:26.225Z,932.32
2019-01-25T06:18:27.635Z,932.34
2019-01-25T06:19:28.322Z,932.31
2019-01-25T06:20:29.569Z,932.3
2019-01-25T06:21:30.558Z,932.32
2019-01-25T06:22:31.243Z,932.32
2019-01-25T06:23:32.370Z,932.36
2019-01-25T06:24:33.053Z,932.36
2019-01-25T06:25:33.882Z,932.35
2019-01-25T06:26:34.873Z,932.37
2019-01-25T06:27:35.998Z,932.34
2019-01-25T06:28:37.126Z,932.35
2019-01-25T06:29:37.644Z,932.35
2019-01-25T06:30:38.073Z,932.32
2019-01-25T06:31:38.474Z,932.37
2019-01-25T06:32:39.890Z,932.33
2019-01-25T06:33:41.295Z,932.37
2019-01-25T06:34:41.978Z,932.31
2019-01-25T06:35:42.470Z,932.32
2019-01-25T06:36:43.035Z,932.32
2019-01-25T06:37:43.723Z,932.33
2019-01-25T06:38:44.411Z,932.32
2019-01-25T06:39:45.537Z,932.35
2019-01-25T06:40:45.943Z,932.35
2019-01-25T06:41:46.904Z,932.32
2019-01-25T06:42:48.190Z,932.34
2019-01-25T06:43:48.593Z,932.35
2019-01-25T06:44:49.278Z,932.36
2019-01-25T06:45:50.275Z,932.36
2019-01-25T06:46:50.688Z,932.4
2019-01-25T06:47:51.372Z,932.36
2019-01-25T06:48:52.093Z,932.36
2019-01-25T06:49:52.503Z,932.4
2019-01-25T06:50:52.908Z,932.38
2019-01-25T06:51:53.316Z,932.42
2019-01-25T06:52:54.444Z,932.41
2019-01-25T06:53:55.133Z,932.41
2019-01-25T06:54:56.260Z,932.37
2019-01-25T06:55:56.889Z,932.39
2019-01-25T06:56:58.138Z,932.39
2019-01-25T06:57:59.773Z,932.4
2019-01-25T06:59:00.798Z,932.45
2019-01-25T07:00:01.444Z,932.46
2019-01-25T07:01:02.654Z,932.48
2019-01-25T07:02:03.136Z,932.48
2019-01-25T07:03:04.201Z,932.46
2019-01-25T07:04:05.872Z,932.46
2019-01-25T07:05:06.292Z,932.47
2019-01-25T07:06:06.468Z,932.48
2019-01-25T07:07:07.340Z,932.47
2019-01-25T07:08:08.070Z,932.5
2019-01-25T07:09:08.771Z,932.51
2019-01-25T07:10:09.908Z,932.5
2019-01-25T07:11:10.804Z,932.56
2019-01-25T07:12:11.604Z,932.57
2019-01-25T07:13:12.434Z,932.55
2019-01-25T07:14:12.617Z,932.54
2019-01-25T07:15:13.329Z,932.6
2019-01-25T07:16:13.862Z,932.59
2019-01-25T07:17:14.993Z,932.54
2019-01-25T07:18:16.401Z,932.53
2019-01-25T07:19:17.055Z,932.5
2019-01-25T07:20:17.333Z,932.55
2019-01-25T07:21:18.451Z,932.52
2019-01-25T07:22:19.320Z,932.5
2019-01-25T07:23:19.628Z,932.52
2019-01-25T07:24:21.042Z,932.54
2019-01-25T07:25:21.452Z,932.54
2019-01-25T07:26:22.536Z,932.58
2019-01-25T07:27:23.316Z,932.56
2019-01-25T07:28:23.895Z,932.51
2019-01-25T07:29:24.688Z,932.56
2019-01-25T07:30:24.924Z,932.57
2019-01-25T07:31:26.318Z,932.55
2019-01-25T07:32:26.490Z,932.57
2019-01-25T07:33:27.188Z,932.56
2019-01-25T07:34:28.106Z,932.63
2019-01-25T07:35:29.108Z,932.59
2019-01-25T07:36:30.178Z,932.6
2019-01-25T07:37:30.683Z,932.59
2019-01-25T07:38:31.700Z,932.65
2019-01-25T07:39:32.714Z,932.66
2019-01-25T07:40:33.503Z,932.65
2019-01-25T07:41:33.828Z,932.62
2019-01-25T07:42:34.139Z,932.63
2019-01-25T07:43:35.996Z,932.66
2019-01-25T07:44:37.157Z,932.7
2019-01-25T07:45:37.936Z,932.69
2019-01-25T07:46:38.828Z,932.75
2019-01-25T07:47:39.567Z,932.73
2019-01-25T07:48:40.452Z,932.73
2019-01-25T07:49:41.146Z,932.72
2019-01-25T07:50:41.991Z,932.75
2019-01-25T07:51:42.399Z,932.76
2019-01-25T07:52:43.002Z,932.76
2019-01-25T07:53:43.616Z,932.81
2019-01-25T07:54:44.644Z,932.78
2019-01-25T07:55:45.578Z,932.81
2019-01-25T07:56:46.148Z,932.78
2019-01-25T07:57:46.702Z,932.81
2019-01-25T07:58:47.871Z,932.8
2019-01-25T07:59:48.655Z,932.82
2019-01-25T08:00:49.400Z,932.81
2019-01-25T08:01:50.137Z,932.85
2019-01-25T08:02:51.459Z,932.89
2019-01-25T08:03:51.686Z,932.89
2019-01-25T08:04:52.199Z,932.91
2019-01-25T08:05:53.238Z,932.92
2019-01-25T08:06:53.578Z,932.96
2019-01-25T08:07:54.309Z,932.93
2019-01-25T08:08:54.753Z,932.93
2019-01-25T08:09:55.409Z,932.96
2019-01-25T08:10:55.693Z,932.97
2019-01-25T08:11:56.173Z,932.97
2019-01-25T08:12:08.302Z,933
2019-01-25T08:13:08.468Z,932.98
2019-01-25T08:14:09.322Z,933.01
2019-01-25T08:15:10.057Z,933.02
2019-01-25T08:16:11.089Z,933.04
2019-01-25T08:17:11.915Z,933.08
2019-01-25T08:18:12.848Z,933.07
2019-01-25T08:19:14.002Z,933.1
2019-01-25T08:20:14.917Z,933.14
2019-01-25T08:21:15.518Z,933.12
2019-01-25T08:22:16.877Z,933.1
2019-01-25T08:23:17.434Z,933.09
2019-01-25T08:24:19.490Z,933.14
2019-01-25T08:24:30.427Z,933.14
2019-01-25T08:24:43.478Z,933.11
2019-01-25T08:24:55.897Z,933.11
2019-01-25T08:25:08.058Z,933.09
2019-01-25T08:26:07.841Z,933.08
2019-01-25T08:27:08.935Z,933.14
2019-01-25T08:28:10.051Z,933.14
2019-01-25T08:29:11.029Z,933.14
2019-01-25T08:30:11.576Z,933.2
2019-01-25T08:31:12.336Z,933.21
2019-01-25T08:32:13.093Z,933.21
2019-01-25T08:33:14.153Z,933.22
2019-01-25T08:34:14.396Z,933.23
2019-01-25T08:35:15.878Z,933.21
2019-01-25T08:36:16.666Z,933.24
2019-01-25T08:37:17.506Z,933.26
2019-01-25T08:38:18.677Z,933.24
2019-01-25T08:39:19.889Z,933.29
2019-01-25T08:40:20.650Z,933.25
2019-01-25T08:41:21.801Z,933.29
2019-01-25T08:42:23.066Z,933.3
2019-01-25T08:43:23.486Z,933.31
2019-01-25T08:44:24.207Z,933.29
2019-01-25T08:45:25.254Z,933.27
2019-01-25T08:46:26.321Z,933.3
2019-01-25T08:47:26.769Z,933.33
2019-01-25T08:48:29.615Z,933.28
2019-01-25T08:49:30.879Z,933.31
2019-01-25T08:50:32.811Z,933.33
2019-01-25T08:51:33.326Z,933.37
2019-01-25T08:52:34.483Z,933.36
2019-01-25T08:53:35.144Z,933.39
2019-01-25T08:54:35.823Z,933.39
2019-01-25T08:55:36.319Z,933.39
2019-01-25T08:56:37.237Z,933.38
2019-01-25T08:57:38.045Z,933.41
2019-01-25T08:58:38.280Z,933.43
2019-01-25T08:59:39.208Z,933.44
2019-01-25T08:59:50.992Z,933.4
2019-01-25T09:00:52.329Z,933.45
2019-01-25T09:01:53.006Z,933.45
2019-01-25T09:02:53.816Z,933.45
2019-01-25T09:03:54.423Z,933.49
2019-01-25T09:04:55.113Z,933.5
2019-01-25T09:05:56.085Z,933.5
2019-01-25T09:06:56.822Z,933.5
2019-01-25T09:07:57.515Z,933.54
2019-01-25T09:08:58.359Z,933.56
2019-01-25T09:09:59.008Z,933.53
2019-01-25T09:11:00.326Z,933.57
2019-01-25T09:12:01.353Z,933.53
2019-01-25T09:13:02.330Z,933.59
2019-01-25T09:14:03.385Z,933.55
2019-01-25T09:15:04.442Z,933.58
2019-01-25T09:16:05.575Z,933.58
2019-01-25T09:17:06.710Z,933.56
2019-01-25T09:18:08.124Z,933.56
2019-01-25T09:19:09.018Z,933.57
2019-01-25T09:20:14.894Z,933.54
2019-01-25T09:20:22.872Z,933.57
2019-01-25T09:21:24.069Z,933.55
2019-01-25T09:22:24.491Z,933.54
2019-01-25T09:23:25.063Z,933.54
2019-01-25T09:24:25.829Z,933.55
2019-01-25T09:25:26.795Z,933.6
2019-01-25T09:26:27.904Z,933.58
2019-01-25T09:27:28.941Z,933.61
2019-01-25T09:28:29.648Z,933.68
2019-01-25T09:29:30.403Z,933.66
2019-01-25T09:30:30.967Z,933.66
2019-01-25T09:31:31.643Z,933.7
2019-01-25T09:32:31.827Z,933.73
2019-01-25T09:33:32.350Z,933.72
2019-01-25T09:34:33.046Z,933.76
2019-01-25T09:35:33.733Z,933.78
2019-01-25T09:36:34.146Z,933.8
2019-01-25T09:37:35.239Z,933.79
2019-01-25T09:38:36.662Z,933.8
2019-01-25T09:39:37.213Z,933.82
2019-01-25T09:40:37.737Z,933.82
2019-01-25T09:41:39.981Z,933.85
2019-01-25T09:42:40.730Z,933.86
2019-01-25T09:43:41.075Z,933.89
2019-01-25T09:44:41.567Z,933.84
2019-01-25T09:45:42.264Z,933.85
2019-01-25T09:46:42.674Z,933.92
2019-01-25T09:47:43.811Z,933.97
2019-01-25T09:48:43.985Z,933.94
2019-01-25T09:49:44.408Z,933.93
2019-01-25T09:50:52.499Z,933.98
2019-01-25T09:50:56.899Z,933.99
2019-01-25T09:51:57.505Z,934.04
2019-01-25T09:52:58.140Z,934.05
2019-01-25T09:53:58.915Z,934.03
2019-01-25T09:54:59.676Z,934.06
2019-01-25T09:56:00.460Z,934.04
2019-01-25T09:57:01.433Z,934.08
2019-01-25T09:58:02.402Z,934.07
2019-01-25T09:59:02.732Z,934.1
2019-01-25T10:00:03.673Z,934.07
2019-01-25T10:01:04.109Z,934.1
2019-01-25T10:02:04.549Z,934.06
2019-01-25T10:03:04.877Z,934.12
2019-01-25T10:04:05.747Z,934.06
2019-01-25T10:05:06.757Z,934.12
2019-01-25T10:06:07.450Z,934.1
2019-01-25T10:07:08.668Z,934.07
2019-01-25T10:08:09.744Z,934.16
2019-01-25T10:09:10.223Z,934.15
2019-01-25T10:10:10.820Z,934.06
2019-01-25T10:11:12.026Z,934.01
2019-01-25T10:12:12.694Z,934.06
2019-01-25T10:13:13.133Z,934.09
2019-01-25T10:14:14.231Z,934.08
2019-01-25T10:15:15.396Z,934.11
2019-01-25T10:16:15.756Z,934.05
2019-01-25T10:17:16.462Z,934.12
2019-01-25T10:18:16.649Z,934.11
2019-01-25T10:19:17.631Z,934.14
2019-01-25T10:20:18.199Z,934.12
2019-01-25T10:21:18.739Z,934.15
2019-01-25T10:22:19.730Z,934.18
2019-01-25T10:23:20.699Z,934.15
2019-01-25T10:24:21.638Z,934.19
2019-01-25T10:25:22.010Z,934.18
2019-01-25T10:26:22.434Z,934.2
2019-01-25T10:27:23.012Z,934.25
2019-01-25T10:28:23.459Z,934.25
2019-01-25T10:29:23.884Z,934.23
2019-01-25T10:30:24.365Z,934.29
2019-01-25T10:31:25.598Z,934.26
2019-01-25T10:32:27.051Z,934.23
2019-01-25T10:33:28.237Z,934.2
2019-01-25T10:34:29.457Z,934.2
2019-01-25T10:35:31.984Z,934.2
2019-01-25T10:36:32.961Z,934.24
2019-01-25T10:37:33.219Z,934.2
2019-01-25T10:38:33.915Z,934.2
2019-01-25T10:39:35.089Z,934.18
2019-01-25T10:40:35.678Z,934.15
2019-01-25T10:41:36.451Z,934.21
2019-01-25T10:42:52.658Z,934.22
2019-01-25T10:42:53.124Z,934.18
2019-01-25T10:43:01.866Z,934.21
2019-01-25T10:44:02.293Z,934.15
2019-01-25T10:45:05.344Z,934.17
2019-01-25T10:46:06.192Z,934.17
2019-01-25T10:47:06.926Z,934.17
2019-01-25T10:48:07.903Z,934.17
2019-01-25T10:49:08.436Z,934.18
2019-01-25T10:50:09.853Z,934.19
2019-01-25T10:51:11.109Z,934.12
2019-01-25T10:52:11.618Z,934.08
2019-01-25T10:53:12.463Z,934
2019-01-25T10:54:13.678Z,934.01
2019-01-25T10:55:14.044Z,933.97
2019-01-25T10:56:14.776Z,933.94
2019-01-25T10:57:15.193Z,933.97
2019-01-25T10:58:16.164Z,933.97
2019-01-25T10:59:17.028Z,933.95
2019-01-25T11:00:17.850Z,933.91
2019-01-25T11:01:18.974Z,933.99
2019-01-25T11:02:19.834Z,933.94
2019-01-25T11:03:20.271Z,933.97
2019-01-25T11:04:21.547Z,933.95
2019-01-25T11:05:22.373Z,933.94
2019-01-25T11:06:23.641Z,933.96
2019-01-25T11:07:24.197Z,933.88
2019-01-25T11:08:24.608Z,933.88
2019-01-25T11:09:26.061Z,933.9
2019-01-25T11:10:26.643Z,933.86
2019-01-25T11:11:27.280Z,933.88
2019-01-25T11:12:28.080Z,933.88
2019-01-25T11:13:28.751Z,933.88
2019-01-25T11:14:29.206Z,933.84
2019-01-25T11:15:30.130Z,933.9
2019-01-25T11:16:31.280Z,933.83
2019-01-25T11:17:37.037Z,933.84
2019-01-25T11:17:43.477Z,933.82
2019-01-25T11:18:43.740Z,933.84
2019-01-25T11:19:44.152Z,933.79
2019-01-25T11:20:45.270Z,933.77
2019-01-25T11:21:46.205Z,933.83
2019-01-25T11:22:46.870Z,933.75
2019-01-25T11:23:47.859Z,933.8
2019-01-25T11:24:48.565Z,933.8
2019-01-25T11:25:48.990Z,933.74
2019-01-25T11:26:49.785Z,933.78
2019-01-25T11:27:50.687Z,933.79
2019-01-25T11:28:51.567Z,933.77
2019-01-25T11:29:52.356Z,933.78
2019-01-25T11:30:52.929Z,933.77
2019-01-25T11:31:53.825Z,933.8
2019-01-25T11:32:54.135Z,933.78
2019-01-25T11:33:54.724Z,933.77
2019-01-25T11:34:55.369Z,933.72
2019-01-25T11:35:57.472Z,933.77
2019-01-25T11:36:08.645Z,933.77
2019-01-25T11:36:22.357Z,933.76
2019-01-25T11:37:23.427Z,933.77
2019-01-25T11:37:35.150Z,933.78
2019-01-25T11:37:47.294Z,933.65
2019-01-25T11:38:49.097Z,933.7
2019-01-25T11:39:50.061Z,933.66
2019-01-25T11:40:01.723Z,933.67
2019-01-25T11:41:02.110Z,933.67
2019-01-25T11:42:02.389Z,933.67
2019-01-25T11:43:10.051Z,933.69
2019-01-25T11:43:15.575Z,933.69
2019-01-25T11:44:16.503Z,933.73
2019-01-25T11:45:18.570Z,933.73
2019-01-25T11:46:21.368Z,933.7
2019-01-25T11:46:31.986Z,933.77
2019-01-25T11:47:32.559Z,933.7
2019-01-25T11:48:32.973Z,933.73
2019-01-25T11:49:33.941Z,933.75
2019-01-25T11:50:34.352Z,933.75
2019-01-25T11:51:35.812Z,933.75
2019-01-25T11:52:36.385Z,933.74
2019-01-25T11:53:36.841Z,933.7
2019-01-25T11:54:37.860Z,933.69
2019-01-25T11:55:38.880Z,933.7
2019-01-25T11:56:39.576Z,933.71
2019-01-25T11:57:40.729Z,933.69
2019-01-25T11:58:42.073Z,933.67
2019-01-25T11:59:42.594Z,933.67
2019-01-25T12:00:43.918Z,933.65
2019-01-25T12:01:44.611Z,933.68
2019-01-25T12:02:46.084Z,933.68
2019-01-25T12:03:46.916Z,933.62
2019-01-25T12:04:47.660Z,933.64
2019-01-25T12:05:48.905Z,933.63
2019-01-25T12:06:50.047Z,933.65
2019-01-25T12:07:50.505Z,933.62
2019-01-25T12:08:51.474Z,933.63
2019-01-25T12:09:52.613Z,933.66
2019-01-25T12:10:53.748Z,933.65
2019-01-25T12:11:54.439Z,933.64
2019-01-25T12:12:54.855Z,933.62
2019-01-25T12:13:55.103Z,933.62
2019-01-25T12:14:57.129Z,933.6
2019-01-25T12:15:08.516Z,933.6
2019-01-25T12:15:21.002Z,933.6
2019-01-25T12:16:22.801Z,933.63
2019-01-25T12:17:23.075Z,933.65
2019-01-25T12:18:24.248Z,933.62
2019-01-25T12:19:25.429Z,933.6
2019-01-25T12:20:27.284Z,933.61
2019-01-25T12:21:27.939Z,933.61
2019-01-25T12:22:28.675Z,933.57
2019-01-25T12:23:29.448Z,933.59
2019-01-25T12:24:30.176Z,933.53